Search for airport 
image banner adimage banner adimage banner ad
image banner ad

4IA0 - Greater Community Hospital

Located in Creston, United States

ICAO - 4IA0, IATA -

Data provided by Airmate  

General information

Coordinates: N41°4'8" W94°22'59"
Elevation is 1291 feet MSL.
Magnetic variation is 05° East
View others Airports in Iowa

Operational data

Special qualification required
Current time UTC:
Current local time:
Weather at : KCSQ - Creston Muni ( 6 km )
METAR: KCSQ 150915Z AUTO 00000KT 10SM CLR 18/14 A3010 RMK AO2
View NOTAMs / SUP AIP / TFR affecting this airport [VIEW]
Communications frequencies: [VIEW]

Runways:

Airport contact information

Address: Creston United States

Satellite view of 4IA0